sensor_id;sensor_type;location;lat;lon;timestamp;temperature;humidity
33067;DHT22;19428;49.024;8.366;2023-05-24T00:00:45;14.30;47.10
33067;DHT22;19428;49.024;8.366;2023-05-24T00:03:11;14.20;48.10
33067;DHT22;19428;49.024;8.366;2023-05-24T00:05:39;14.20;47.20
33067;DHT22;19428;49.024;8.366;2023-05-24T00:08:05;14.20;48.30
33067;DHT22;19428;49.024;8.366;2023-05-24T00:10:31;14.20;47.30
33067;DHT22;19428;49.024;8.366;2023-05-24T00:12:56;14.10;47.40
33067;DHT22;19428;49.024;8.366;2023-05-24T00:15:22;14.10;47.70
33067;DHT22;19428;49.024;8.366;2023-05-24T00:17:49;14.10;47.60
33067;DHT22;19428;49.024;8.366;2023-05-24T00:20:15;14.10;48.30
33067;DHT22;19428;49.024;8.366;2023-05-24T00:22:41;14.10;48.10
33067;DHT22;19428;49.024;8.366;2023-05-24T00:25:07;14.10;48.30
33067;DHT22;19428;49.024;8.366;2023-05-24T00:27:33;14.00;47.90
33067;DHT22;19428;49.024;8.366;2023-05-24T00:30:01;13.90;47.40
33067;DHT22;19428;49.024;8.366;2023-05-24T00:32:27;13.90;47.50
33067;DHT22;19428;49.024;8.366;2023-05-24T00:34:52;13.90;47.90
33067;DHT22;19428;49.024;8.366;2023-05-24T00:37:18;13.90;48.00
33067;DHT22;19428;49.024;8.366;2023-05-24T00:39:43;13.90;48.00
33067;DHT22;19428;49.024;8.366;2023-05-24T00:42:09;13.90;49.00
33067;DHT22;19428;49.024;8.366;2023-05-24T00:44:35;13.90;49.00
33067;DHT22;19428;49.024;8.366;2023-05-24T00:47:00;13.80;49.90
33067;DHT22;19428;49.024;8.366;2023-05-24T00:49:26;13.80;50.60
33067;DHT22;19428;49.024;8.366;2023-05-24T00:51:52;13.80;50.60
33067;DHT22;19428;49.024;8.366;2023-05-24T00:54:18;13.70;51.00
33067;DHT22;19428;49.024;8.366;2023-05-24T00:56:45;13.60;51.80
33067;DHT22;19428;49.024;8.366;2023-05-24T00:59:12;13.60;52.00
33067;DHT22;19428;49.024;8.366;2023-05-24T01:01:38;13.40;52.40
33067;DHT22;19428;49.024;8.366;2023-05-24T01:04:06;13.40;52.50
33067;DHT22;19428;49.024;8.366;2023-05-24T01:06:41;13.50;52.90
33067;DHT22;19428;49.024;8.366;2023-05-24T01:10:02;13.40;53.40
33067;DHT22;19428;49.024;8.366;2023-05-24T01:12:52;13.30;53.90
33067;DHT22;19428;49.024;8.366;2023-05-24T01:18:30;13.30;54.20
33067;DHT22;19428;49.024;8.366;2023-05-24T01:27:07;13.20;55.40
33067;DHT22;19428;49.024;8.366;2023-05-24T01:29:34;13.20;56.00
33067;DHT22;19428;49.024;8.366;2023-05-24T01:32:01;13.10;56.50
33067;DHT22;19428;49.024;8.366;2023-05-24T01:34:27;13.10;56.70
33067;DHT22;19428;49.024;8.366;2023-05-24T01:36:53;13.10;57.50
33067;DHT22;19428;49.024;8.366;2023-05-24T01:39:19;13.10;58.00
33067;DHT22;19428;49.024;8.366;2023-05-24T01:44:35;13.00;57.50
33067;DHT22;19428;49.024;8.366;2023-05-24T01:50:00;13.00;57.90
33067;DHT22;19428;49.024;8.366;2023-05-24T01:52:30;12.90;57.90
33067;DHT22;19428;49.024;8.366;2023-05-24T01:54:58;13.00;57.00
33067;DHT22;19428;49.024;8.366;2023-05-24T01:57:26;12.90;57.60
33067;DHT22;19428;49.024;8.366;2023-05-24T01:59:53;12.90;57.40
33067;DHT22;19428;49.024;8.366;2023-05-24T02:02:30;12.90;57.40
33067;DHT22;19428;49.024;8.366;2023-05-24T02:04:55;12.90;57.80
33067;DHT22;19428;49.024;8.366;2023-05-24T02:07:24;12.90;57.50
33067;DHT22;19428;49.024;8.366;2023-05-24T02:09:51;12.80;57.70
33067;DHT22;19428;49.024;8.366;2023-05-24T02:12:26;12.80;58.30
33067;DHT22;19428;49.024;8.366;2023-05-24T02:14:55;12.70;58.00
33067;DHT22;19428;49.024;8.366;2023-05-24T02:17:21;12.80;58.40
33067;DHT22;19428;49.024;8.366;2023-05-24T02:19:49;12.70;57.80
33067;DHT22;19428;49.024;8.366;2023-05-24T02:22:17;12.70;57.30
33067;DHT22;19428;49.024;8.366;2023-05-24T02:24:52;12.70;56.40
33067;DHT22;19428;49.024;8.366;2023-05-24T02:27:39;12.70;56.80
33067;DHT22;19428;49.024;8.366;2023-05-24T02:30:20;12.60;56.00
33067;DHT22;19428;49.024;8.366;2023-05-24T02:33:07;12.60;55.30
33067;DHT22;19428;49.024;8.366;2023-05-24T02:36:07;12.60;55.60
33067;DHT22;19428;49.024;8.366;2023-05-24T02:41:59;12.60;55.10
33067;DHT22;19428;49.024;8.366;2023-05-24T02:44:43;12.50;55.40
33067;DHT22;19428;49.024;8.366;2023-05-24T02:53:41;12.40;53.30
33067;DHT22;19428;49.024;8.366;2023-05-24T02:56:11;12.50;53.30
33067;DHT22;19428;49.024;8.366;2023-05-24T02:58:43;12.40;53.70
33067;DHT22;19428;49.024;8.366;2023-05-24T03:01:30;12.40;53.20
33067;DHT22;19428;49.024;8.366;2023-05-24T03:04:08;12.40;53.30
33067;DHT22;19428;49.024;8.366;2023-05-24T03:07:02;12.30;53.60
33067;DHT22;19428;49.024;8.366;2023-05-24T03:09:37;12.40;53.40
33067;DHT22;19428;49.024;8.366;2023-05-24T03:12:29;12.30;53.10
33067;DHT22;19428;49.024;8.366;2023-05-24T03:18:58;12.30;52.60
33067;DHT22;19428;49.024;8.366;2023-05-24T03:22:18;12.30;53.00
33067;DHT22;19428;49.024;8.366;2023-05-24T03:28:26;12.20;53.50
33067;DHT22;19428;49.024;8.366;2023-05-24T03:31:57;12.20;53.50
33067;DHT22;19428;49.024;8.366;2023-05-24T03:34:45;12.20;53.50
33067;DHT22;19428;49.024;8.366;2023-05-24T03:37:13;12.10;53.70
33067;DHT22;19428;49.024;8.366;2023-05-24T03:39:39;12.10;53.90
33067;DHT22;19428;49.024;8.366;2023-05-24T03:42:07;12.20;54.00
33067;DHT22;19428;49.024;8.366;2023-05-24T03:44:41;12.20;53.60
33067;DHT22;19428;49.024;8.366;2023-05-24T03:47:14;12.20;53.90
33067;DHT22;19428;49.024;8.366;2023-05-24T03:49:48;12.20;54.40
33067;DHT22;19428;49.024;8.366;2023-05-24T03:52:19;12.20;53.20
33067;DHT22;19428;49.024;8.366;2023-05-24T03:54:45;12.10;53.70
33067;DHT22;19428;49.024;8.366;2023-05-24T03:57:11;12.00;53.00
33067;DHT22;19428;49.024;8.366;2023-05-24T03:59:38;12.10;52.80
33067;DHT22;19428;49.024;8.366;2023-05-24T04:02:06;12.10;53.10
33067;DHT22;19428;49.024;8.366;2023-05-24T04:04:32;12.10;53.30
33067;DHT22;19428;49.024;8.366;2023-05-24T04:06:58;12.00;52.90
33067;DHT22;19428;49.024;8.366;2023-05-24T04:09:23;12.00;53.20
33067;DHT22;19428;49.024;8.366;2023-05-24T04:11:58;12.10;53.30
33067;DHT22;19428;49.024;8.366;2023-05-24T04:14:26;12.00;53.60
33067;DHT22;19428;49.024;8.366;2023-05-24T04:16:52;11.90;53.60
33067;DHT22;19428;49.024;8.366;2023-05-24T04:19:24;11.90;53.40
33067;DHT22;19428;49.024;8.366;2023-05-24T04:21:59;11.90;54.20
33067;DHT22;19428;49.024;8.366;2023-05-24T04:24:34;11.90;53.00
33067;DHT22;19428;49.024;8.366;2023-05-24T04:27:20;11.90;53.30
33067;DHT22;19428;49.024;8.366;2023-05-24T04:29:52;11.90;53.70
33067;DHT22;19428;49.024;8.366;2023-05-24T04:32:21;11.80;52.90
33067;DHT22;19428;49.024;8.366;2023-05-24T04:34:55;11.80;52.60
33067;DHT22;19428;49.024;8.366;2023-05-24T04:37:21;11.80;52.70
33067;DHT22;19428;49.024;8.366;2023-05-24T04:40:24;11.80;52.70
33067;DHT22;19428;49.024;8.366;2023-05-24T04:43:42;11.80;53.30
33067;DHT22;19428;49.024;8.366;2023-05-24T04:48:52;11.80;53.00
33067;DHT22;19428;49.024;8.366;2023-05-24T04:51:22;11.80;53.40
33067;DHT22;19428;49.024;8.366;2023-05-24T04:53:48;11.80;53.90
33067;DHT22;19428;49.024;8.366;2023-05-24T04:56:13;11.80;54.10
33067;DHT22;19428;49.024;8.366;2023-05-24T04:58:41;11.80;53.80
33067;DHT22;19428;49.024;8.366;2023-05-24T05:01:06;11.70;53.60
33067;DHT22;19428;49.024;8.366;2023-05-24T05:03:32;11.70;53.70
33067;DHT22;19428;49.024;8.366;2023-05-24T05:06:01;11.80;54.00
33067;DHT22;19428;49.024;8.366;2023-05-24T05:08:37;11.70;54.60
33067;DHT22;19428;49.024;8.366;2023-05-24T05:11:04;11.70;54.00
33067;DHT22;19428;49.024;8.366;2023-05-24T05:13:30;11.70;55.30
33067;DHT22;19428;49.024;8.366;2023-05-24T05:15:57;11.80;55.10
33067;DHT22;19428;49.024;8.366;2023-05-24T05:18:22;11.80;54.50
33067;DHT22;19428;49.024;8.366;2023-05-24T05:20:51;11.80;54.40
33067;DHT22;19428;49.024;8.366;2023-05-24T05:23:19;11.80;55.10
33067;DHT22;19428;49.024;8.366;2023-05-24T05:25:45;11.90;55.20
33067;DHT22;19428;49.024;8.366;2023-05-24T05:28:10;11.90;54.30
33067;DHT22;19428;49.024;8.366;2023-05-24T05:30:36;11.90;54.20
33067;DHT22;19428;49.024;8.366;2023-05-24T05:33:04;11.80;54.60
33067;DHT22;19428;49.024;8.366;2023-05-24T05:35:30;11.90;54.60
33067;DHT22;19428;49.024;8.366;2023-05-24T05:37:59;12.00;54.80
33067;DHT22;19428;49.024;8.366;2023-05-24T05:40:27;11.90;55.50
33067;DHT22;19428;49.024;8.366;2023-05-24T05:42:53;11.90;55.20
33067;DHT22;19428;49.024;8.366;2023-05-24T05:45:19;12.00;55.80
33067;DHT22;19428;49.024;8.366;2023-05-24T05:47:44;11.90;55.10
33067;DHT22;19428;49.024;8.366;2023-05-24T05:50:10;12.00;55.70
33067;DHT22;19428;49.024;8.366;2023-05-24T05:52:36;12.00;55.50
33067;DHT22;19428;49.024;8.366;2023-05-24T05:55:01;12.10;56.30
33067;DHT22;19428;49.024;8.366;2023-05-24T05:57:27;12.00;54.10
33067;DHT22;19428;49.024;8.366;2023-05-24T05:59:53;12.20;56.50
33067;DHT22;19428;49.024;8.366;2023-05-24T06:02:18;12.00;54.90
33067;DHT22;19428;49.024;8.366;2023-05-24T06:04:46;12.00;54.80
33067;DHT22;19428;49.024;8.366;2023-05-24T06:07:12;12.00;55.10
33067;DHT22;19428;49.024;8.366;2023-05-24T06:09:38;12.00;55.00
33067;DHT22;19428;49.024;8.366;2023-05-24T06:12:04;12.10;54.30
33067;DHT22;19428;49.024;8.366;2023-05-24T06:14:29;11.80;54.40
33067;DHT22;19428;49.024;8.366;2023-05-24T06:16:57;11.80;54.20
33067;DHT22;19428;49.024;8.366;2023-05-24T06:19:22;11.70;53.30
33067;DHT22;19428;49.024;8.366;2023-05-24T06:21:48;11.80;54.10
33067;DHT22;19428;49.024;8.366;2023-05-24T06:24:18;11.80;54.00
33067;DHT22;19428;49.024;8.366;2023-05-24T06:26:47;11.70;54.30
33067;DHT22;19428;49.024;8.366;2023-05-24T06:29:13;11.80;54.00
33067;DHT22;19428;49.024;8.366;2023-05-24T06:31:39;11.80;53.10
33067;DHT22;19428;49.024;8.366;2023-05-24T06:34:07;11.80;53.70
33067;DHT22;19428;49.024;8.366;2023-05-24T06:36:38;11.80;54.30
33067;DHT22;19428;49.024;8.366;2023-05-24T06:39:08;11.90;53.70
33067;DHT22;19428;49.024;8.366;2023-05-24T06:41:36;12.10;54.00
33067;DHT22;19428;49.024;8.366;2023-05-24T06:44:03;12.20;53.10
33067;DHT22;19428;49.024;8.366;2023-05-24T06:46:29;12.30;52.10
33067;DHT22;19428;49.024;8.366;2023-05-24T06:49:00;12.30;52.90
33067;DHT22;19428;49.024;8.366;2023-05-24T06:51:39;12.40;52.40
33067;DHT22;19428;49.024;8.366;2023-05-24T06:54:10;12.30;53.30
33067;DHT22;19428;49.024;8.366;2023-05-24T07:32:07;12.60;47.80
33067;DHT22;19428;49.024;8.366;2023-05-24T07:35:31;12.40;48.10
33067;DHT22;19428;49.024;8.366;2023-05-24T07:43:02;12.40;48.40
33067;DHT22;19428;49.024;8.366;2023-05-24T07:58:24;13.90;43.50
33067;DHT22;19428;49.024;8.366;2023-05-24T08:01:06;14.10;38.20
33067;DHT22;19428;49.024;8.366;2023-05-24T08:03:52;14.30;39.40
33067;DHT22;19428;49.024;8.366;2023-05-24T08:06:21;14.50;34.40
33067;DHT22;19428;49.024;8.366;2023-05-24T08:08:50;13.90;34.60
33067;DHT22;19428;49.024;8.366;2023-05-24T08:11:45;13.70;36.80
33067;DHT22;19428;49.024;8.366;2023-05-24T08:14:10;13.40;32.10
33067;DHT22;19428;49.024;8.366;2023-05-24T08:16:59;13.40;32.60
33067;DHT22;19428;49.024;8.366;2023-05-24T08:19:50;13.70;32.80
33067;DHT22;19428;49.024;8.366;2023-05-24T08:22:27;13.50;35.40
33067;DHT22;19428;49.024;8.366;2023-05-24T08:25:02;13.20;33.80
33067;DHT22;19428;49.024;8.366;2023-05-24T08:27:34;13.00;34.50
33067;DHT22;19428;49.024;8.366;2023-05-24T08:30:02;12.80;32.00
33067;DHT22;19428;49.024;8.366;2023-05-24T08:32:41;13.00;34.70
33067;DHT22;19428;49.024;8.366;2023-05-24T08:35:29;14.10;31.10
33067;DHT22;19428;49.024;8.366;2023-05-24T08:38:14;14.20;31.10
33067;DHT22;19428;49.024;8.366;2023-05-24T08:40:49;14.90;26.20
33067;DHT22;19428;49.024;8.366;2023-05-24T08:43:20;14.50;29.20
33067;DHT22;19428;49.024;8.366;2023-05-24T08:45:56;14.20;28.60
33067;DHT22;19428;49.024;8.366;2023-05-24T08:48:53;13.80;28.80
33067;DHT22;19428;49.024;8.366;2023-05-24T08:51:24;14.40;29.50
33067;DHT22;19428;49.024;8.366;2023-05-24T08:54:17;14.60;30.00
33067;DHT22;19428;49.024;8.366;2023-05-24T08:57:13;14.10;31.60
33067;DHT22;19428;49.024;8.366;2023-05-24T08:59:53;14.30;28.10
33067;DHT22;19428;49.024;8.366;2023-05-24T09:05:45;14.50;28.00
33067;DHT22;19428;49.024;8.366;2023-05-24T09:08:16;14.50;29.00
33067;DHT22;19428;49.024;8.366;2023-05-24T09:10:58;14.50;24.00
33067;DHT22;19428;49.024;8.366;2023-05-24T09:13:31;14.00;22.40
33067;DHT22;19428;49.024;8.366;2023-05-24T09:16:17;13.90;24.30
33067;DHT22;19428;49.024;8.366;2023-05-24T09:18:56;14.10;23.60
33067;DHT22;19428;49.024;8.366;2023-05-24T09:21:22;14.20;24.70
33067;DHT22;19428;49.024;8.366;2023-05-24T09:23:53;13.80;23.40
33067;DHT22;19428;49.024;8.366;2023-05-24T09:26:27;13.90;25.10
33067;DHT22;19428;49.024;8.366;2023-05-24T09:29:29;13.80;22.80
33067;DHT22;19428;49.024;8.366;2023-05-24T09:35:27;15.00;25.50
33067;DHT22;19428;49.024;8.366;2023-05-24T09:38:02;15.00;19.70
33067;DHT22;19428;49.024;8.366;2023-05-24T09:40:33;14.50;21.40
33067;DHT22;19428;49.024;8.366;2023-05-24T09:43:06;14.90;25.30
33067;DHT22;19428;49.024;8.366;2023-05-24T09:45:45;15.50;23.10
33067;DHT22;19428;49.024;8.366;2023-05-24T09:48:14;15.50;20.10
33067;DHT22;19428;49.024;8.366;2023-05-24T09:50:42;15.10;22.00
33067;DHT22;19428;49.024;8.366;2023-05-24T09:53:12;15.50;16.90
33067;DHT22;19428;49.024;8.366;2023-05-24T09:55:37;15.30;15.70
33067;DHT22;19428;49.024;8.366;2023-05-24T09:58:06;15.60;12.20
33067;DHT22;19428;49.024;8.366;2023-05-24T10:00:40;15.50;12.70
33067;DHT22;19428;49.024;8.366;2023-05-24T10:03:24;15.30;12.60
33067;DHT22;19428;49.024;8.366;2023-05-24T10:05:53;15.60;11.90
33067;DHT22;19428;49.024;8.366;2023-05-24T10:08:24;15.50;11.00
33067;DHT22;19428;49.024;8.366;2023-05-24T10:10:51;15.90;14.00
33067;DHT22;19428;49.024;8.366;2023-05-24T10:13:17;15.90;14.20
33067;DHT22;19428;49.024;8.366;2023-05-24T10:15:43;15.20;16.30
33067;DHT22;19428;49.024;8.366;2023-05-24T10:18:09;15.70;14.00
33067;DHT22;19428;49.024;8.366;2023-05-24T10:20:35;15.70;11.50
33067;DHT22;19428;49.024;8.366;2023-05-24T10:23:03;16.00;12.40
33067;DHT22;19428;49.024;8.366;2023-05-24T10:25:34;16.20;11.10
33067;DHT22;19428;49.024;8.366;2023-05-24T10:28:03;15.70;9.80
33067;DHT22;19428;49.024;8.366;2023-05-24T10:30:52;16.10;7.40
33067;DHT22;19428;49.024;8.366;2023-05-24T10:33:24;15.50;9.70
33067;DHT22;19428;49.024;8.366;2023-05-24T10:35:51;16.00;9.60
33067;DHT22;19428;49.024;8.366;2023-05-24T10:38:20;16.30;8.60
33067;DHT22;19428;49.024;8.366;2023-05-24T10:40:46;16.30;2.70
33067;DHT22;19428;49.024;8.366;2023-05-24T10:43:12;16.50;4.10
33067;DHT22;19428;49.024;8.366;2023-05-24T10:45:39;16.40;1.30
33067;DHT22;19428;49.024;8.366;2023-05-24T10:50:38;16.10;4.70
33067;DHT22;19428;49.024;8.366;2023-05-24T10:53:14;16.40;3.40
33067;DHT22;19428;49.024;8.366;2023-05-24T10:58:18;15.80;2.50
33067;DHT22;19428;49.024;8.366;2023-05-24T11:00:45;15.70;5.40
33067;DHT22;19428;49.024;8.366;2023-05-24T11:03:11;15.60;4.70
33067;DHT22;19428;49.024;8.366;2023-05-24T11:08:22;16.00;5.30
33067;DHT22;19428;49.024;8.366;2023-05-24T11:10:48;16.70;3.90
33067;DHT22;19428;49.024;8.366;2023-05-24T11:13:20;17.10;6.00
33067;DHT22;19428;49.024;8.366;2023-05-24T11:15:51;16.70;6.20
33067;DHT22;19428;49.024;8.366;2023-05-24T11:18:21;16.70;6.40
33067;DHT22;19428;49.024;8.366;2023-05-24T11:20:48;17.40;4.80
33067;DHT22;19428;49.024;8.366;2023-05-24T11:23:15;17.00;5.00
33067;DHT22;19428;49.024;8.366;2023-05-24T11:25:42;16.70;4.30
33067;DHT22;19428;49.024;8.366;2023-05-24T11:28:09;16.70;10.20
33067;DHT22;19428;49.024;8.366;2023-05-24T11:30:45;17.80;4.40
33067;DHT22;19428;49.024;8.366;2023-05-24T11:33:19;17.80;2.30
33067;DHT22;19428;49.024;8.366;2023-05-24T11:35:45;17.90;4.80
33067;DHT22;19428;49.024;8.366;2023-05-24T11:38:12;17.10;3.70
33067;DHT22;19428;49.024;8.366;2023-05-24T11:40:59;17.70;4.70
33067;DHT22;19428;49.024;8.366;2023-05-24T11:43:29;19.10;2.00
33067;DHT22;19428;49.024;8.366;2023-05-24T11:45:55;18.80;2.50
33067;DHT22;19428;49.024;8.366;2023-05-24T11:48:24;17.70;2.30
33067;DHT22;19428;49.024;8.366;2023-05-24T11:50:56;18.30;1.00
33067;DHT22;19428;49.024;8.366;2023-05-24T11:53:35;18.50;1.00
33067;DHT22;19428;49.024;8.366;2023-05-24T11:56:06;18.70;1.00
33067;DHT22;19428;49.024;8.366;2023-05-24T11:58:48;19.00;1.00
33067;DHT22;19428;49.024;8.366;2023-05-24T12:01:25;18.70;1.00
33067;DHT22;19428;49.024;8.366;2023-05-24T12:03:51;18.10;1.70
33067;DHT22;19428;49.024;8.366;2023-05-24T12:06:19;18.00;1.50
33067;DHT22;19428;49.024;8.366;2023-05-24T12:08:45;18.40;3.00
33067;DHT22;19428;49.024;8.366;2023-05-24T12:11:15;18.40;1.00
33067;DHT22;19428;49.024;8.366;2023-05-24T12:13:42;18.60;1.00
33067;DHT22;19428;49.024;8.366;2023-05-24T12:16:10;18.80;2.10
33067;DHT22;19428;49.024;8.366;2023-05-24T12:18:37;18.80;1.00
33067;DHT22;19428;49.024;8.366;2023-05-24T12:21:08;18.20;1.00
33067;DHT22;19428;49.024;8.366;2023-05-24T12:23:34;18.50;1.00
33067;DHT22;19428;49.024;8.366;2023-05-24T12:26:03;18.90;1.00
33067;DHT22;19428;49.024;8.366;2023-05-24T12:28:35;17.60;1.00
33067;DHT22;19428;49.024;8.366;2023-05-24T12:31:02;18.90;1.00
33067;DHT22;19428;49.024;8.366;2023-05-24T12:33:30;19.40;1.00
33067;DHT22;19428;49.024;8.366;2023-05-24T12:35:58;19.70;1.00
33067;DHT22;19428;49.024;8.366;2023-05-24T12:38:30;18.90;1.00
33067;DHT22;19428;49.024;8.366;2023-05-24T12:40:59;18.80;1.00
33067;DHT22;19428;49.024;8.366;2023-05-24T12:43:29;19.40;1.00
33067;DHT22;19428;49.024;8.366;2023-05-24T12:45:55;19.70;1.00
33067;DHT22;19428;49.024;8.366;2023-05-24T12:48:21;20.00;1.00
33067;DHT22;19428;49.024;8.366;2023-05-24T12:50:51;19.90;1.00
33067;DHT22;19428;49.024;8.366;2023-05-24T12:53:18;20.40;1.00
33067;DHT22;19428;49.024;8.366;2023-05-24T12:55:51;20.00;1.00
33067;DHT22;19428;49.024;8.366;2023-05-24T12:58:20;19.80;1.00
33067;DHT22;19428;49.024;8.366;2023-05-24T13:00:47;19.50;1.00
33067;DHT22;19428;49.024;8.366;2023-05-24T13:03:16;19.00;1.00
33067;DHT22;19428;49.024;8.366;2023-05-24T13:05:42;19.80;1.00
33067;DHT22;19428;49.024;8.366;2023-05-24T13:08:12;19.70;1.00
33067;DHT22;19428;49.024;8.366;2023-05-24T13:10:39;19.40;1.00
33067;DHT22;19428;49.024;8.366;2023-05-24T13:13:06;20.00;1.00
33067;DHT22;19428;49.024;8.366;2023-05-24T13:15:32;19.70;1.00
33067;DHT22;19428;49.024;8.366;2023-05-24T13:18:02;18.80;1.00
33067;DHT22;19428;49.024;8.366;2023-05-24T13:20:28;18.50;1.00
33067;DHT22;19428;49.024;8.366;2023-05-24T13:22:57;18.50;1.00
33067;DHT22;19428;49.024;8.366;2023-05-24T13:25:23;18.80;1.00
33067;DHT22;19428;49.024;8.366;2023-05-24T13:27:51;18.90;1.00
33067;DHT22;19428;49.024;8.366;2023-05-24T13:30:21;19.80;1.00
33067;DHT22;19428;49.024;8.366;2023-05-24T13:32:53;20.20;1.00
33067;DHT22;19428;49.024;8.366;2023-05-24T13:35:20;19.20;1.00
33067;DHT22;19428;49.024;8.366;2023-05-24T13:37:47;19.60;1.00
33067;DHT22;19428;49.024;8.366;2023-05-24T13:40:13;20.10;1.00
33067;DHT22;19428;49.024;8.366;2023-05-24T13:42:45;20.10;1.00
33067;DHT22;19428;49.024;8.366;2023-05-24T13:45:12;19.20;1.00
33067;DHT22;19428;49.024;8.366;2023-05-24T13:47:37;18.40;1.00
33067;DHT22;19428;49.024;8.366;2023-05-24T13:50:06;19.00;1.00
33067;DHT22;19428;49.024;8.366;2023-05-24T13:52:31;19.50;1.00
33067;DHT22;19428;49.024;8.366;2023-05-24T13:55:01;20.00;1.00
33067;DHT22;19428;49.024;8.366;2023-05-24T13:57:30;18.80;1.00
33067;DHT22;19428;49.024;8.366;2023-05-24T13:59:59;18.80;1.00
33067;DHT22;19428;49.024;8.366;2023-05-24T14:02:25;19.30;1.00
33067;DHT22;19428;49.024;8.366;2023-05-24T14:04:51;19.30;1.00
33067;DHT22;19428;49.024;8.366;2023-05-24T14:07:18;19.20;1.00
33067;DHT22;19428;49.024;8.366;2023-05-24T14:09:44;18.40;1.00
33067;DHT22;19428;49.024;8.366;2023-05-24T14:12:10;19.60;1.00
33067;DHT22;19428;49.024;8.366;2023-05-24T14:14:38;19.80;1.00
33067;DHT22;19428;49.024;8.366;2023-05-24T14:17:04;20.00;1.00
33067;DHT22;19428;49.024;8.366;2023-05-24T14:19:29;19.00;1.00
33067;DHT22;19428;49.024;8.366;2023-05-24T14:21:55;19.40;1.00
33067;DHT22;19428;49.024;8.366;2023-05-24T14:24:24;19.90;1.00
33067;DHT22;19428;49.024;8.366;2023-05-24T14:26:51;18.80;1.00
33067;DHT22;19428;49.024;8.366;2023-05-24T14:29:16;18.90;1.00
33067;DHT22;19428;49.024;8.366;2023-05-24T14:31:42;18.90;1.00
33067;DHT22;19428;49.024;8.366;2023-05-24T14:34:09;19.40;1.00
33067;DHT22;19428;49.024;8.366;2023-05-24T14:36:38;19.10;1.00
33067;DHT22;19428;49.024;8.366;2023-05-24T14:39:04;19.30;1.00
33067;DHT22;19428;49.024;8.366;2023-05-24T14:41:35;19.30;1.00
33067;DHT22;19428;49.024;8.366;2023-05-24T14:44:02;19.80;1.00
33067;DHT22;19428;49.024;8.366;2023-05-24T14:46:28;19.40;1.00
33067;DHT22;19428;49.024;8.366;2023-05-24T14:48:54;19.30;1.00
33067;DHT22;19428;49.024;8.366;2023-05-24T14:51:19;18.90;1.00
33067;DHT22;19428;49.024;8.366;2023-05-24T14:53:45;19.50;1.00
33067;DHT22;19428;49.024;8.366;2023-05-24T14:56:11;19.20;1.00
33067;DHT22;19428;49.024;8.366;2023-05-24T14:58:40;20.00;1.00
33067;DHT22;19428;49.024;8.366;2023-05-24T15:01:07;19.70;1.00
33067;DHT22;19428;49.024;8.366;2023-05-24T15:03:34;20.00;1.00
33067;DHT22;19428;49.024;8.366;2023-05-24T15:06:00;19.20;1.00
33067;DHT22;19428;49.024;8.366;2023-05-24T15:08:26;18.90;1.00
33067;DHT22;19428;49.024;8.366;2023-05-24T15:10:52;19.30;1.00
33067;DHT22;19428;49.024;8.366;2023-05-24T15:13:17;19.10;1.00
33067;DHT22;19428;49.024;8.366;2023-05-24T15:15:44;19.00;1.00
33067;DHT22;19428;49.024;8.366;2023-05-24T15:18:10;19.30;1.00
33067;DHT22;19428;49.024;8.366;2023-05-24T15:20:38;18.50;1.00
33067;DHT22;19428;49.024;8.366;2023-05-24T15:23:03;18.90;1.00
33067;DHT22;19428;49.024;8.366;2023-05-24T15:25:29;19.20;1.00
33067;DHT22;19428;49.024;8.366;2023-05-24T15:27:55;19.20;1.00
33067;DHT22;19428;49.024;8.366;2023-05-24T15:30:21;19.20;1.00
33067;DHT22;19428;49.024;8.366;2023-05-24T15:32:48;19.30;1.00
33067;DHT22;19428;49.024;8.366;2023-05-24T15:35:14;19.10;1.00
33067;DHT22;19428;49.024;8.366;2023-05-24T15:37:41;19.30;1.00
33067;DHT22;19428;49.024;8.366;2023-05-24T15:40:08;18.80;1.00
33067;DHT22;19428;49.024;8.366;2023-05-24T15:42:34;19.50;1.00
33067;DHT22;19428;49.024;8.366;2023-05-24T15:44:59;18.80;1.00
33067;DHT22;19428;49.024;8.366;2023-05-24T15:47:25;18.40;1.00
33067;DHT22;19428;49.024;8.366;2023-05-24T15:50:01;18.60;1.00
33067;DHT22;19428;49.024;8.366;2023-05-24T15:52:33;18.80;1.00
33067;DHT22;19428;49.024;8.366;2023-05-24T15:55:02;18.30;1.00
33067;DHT22;19428;49.024;8.366;2023-05-24T15:57:27;18.40;1.00
33067;DHT22;19428;49.024;8.366;2023-05-24T15:59:53;18.60;1.00
33067;DHT22;19428;49.024;8.366;2023-05-24T16:02:19;18.70;1.00
33067;DHT22;19428;49.024;8.366;2023-05-24T16:04:44;18.50;1.00
33067;DHT22;19428;49.024;8.366;2023-05-24T16:07:10;18.50;1.00
33067;DHT22;19428;49.024;8.366;2023-05-24T16:09:37;18.50;1.00
33067;DHT22;19428;49.024;8.366;2023-05-24T16:12:04;18.20;1.00
33067;DHT22;19428;49.024;8.366;2023-05-24T16:14:29;18.50;1.00
33067;DHT22;19428;49.024;8.366;2023-05-24T16:16:55;17.90;1.00
33067;DHT22;19428;49.024;8.366;2023-05-24T16:19:23;17.80;1.00
33067;DHT22;19428;49.024;8.366;2023-05-24T16:21:51;17.90;1.00
33067;DHT22;19428;49.024;8.366;2023-05-24T16:24:18;17.80;1.00
33067;DHT22;19428;49.024;8.366;2023-05-24T16:26:47;17.50;1.00
33067;DHT22;19428;49.024;8.366;2023-05-24T16:29:12;17.90;1.00
33067;DHT22;19428;49.024;8.366;2023-05-24T16:31:43;18.20;1.00
33067;DHT22;19428;49.024;8.366;2023-05-24T16:34:09;18.20;1.00
33067;DHT22;19428;49.024;8.366;2023-05-24T16:36:34;18.00;1.00
33067;DHT22;19428;49.024;8.366;2023-05-24T16:39:01;18.00;1.00
33067;DHT22;19428;49.024;8.366;2023-05-24T16:41:27;18.00;1.00
33067;DHT22;19428;49.024;8.366;2023-05-24T16:43:59;18.00;1.00
33067;DHT22;19428;49.024;8.366;2023-05-24T16:46:25;17.70;1.00
33067;DHT22;19428;49.024;8.366;2023-05-24T16:48:51;17.50;1.00
33067;DHT22;19428;49.024;8.366;2023-05-24T16:51:17;17.60;1.00
33067;DHT22;19428;49.024;8.366;2023-05-24T16:53:42;17.70;1.00
33067;DHT22;19428;49.024;8.366;2023-05-24T16:56:08;17.80;1.00
33067;DHT22;19428;49.024;8.366;2023-05-24T16:58:33;17.60;1.00
33067;DHT22;19428;49.024;8.366;2023-05-24T17:01:00;17.60;1.00
33067;DHT22;19428;49.024;8.366;2023-05-24T17:03:26;17.50;1.00
33067;DHT22;19428;49.024;8.366;2023-05-24T17:05:56;17.40;1.00
33067;DHT22;19428;49.024;8.366;2023-05-24T17:08:23;17.50;1.00
33067;DHT22;19428;49.024;8.366;2023-05-24T17:10:50;17.30;1.00
33067;DHT22;19428;49.024;8.366;2023-05-24T17:13:23;17.00;1.00
33067;DHT22;19428;49.024;8.366;2023-05-24T17:15:52;16.90;1.00
33067;DHT22;19428;49.024;8.366;2023-05-24T17:18:22;16.80;1.00
33067;DHT22;19428;49.024;8.366;2023-05-24T17:20:57;17.00;1.00
33067;DHT22;19428;49.024;8.366;2023-05-24T17:23:24;16.60;1.00
33067;DHT22;19428;49.024;8.366;2023-05-24T17:25:51;16.50;1.00
33067;DHT22;19428;49.024;8.366;2023-05-24T17:28:17;16.50;1.00
33067;DHT22;19428;49.024;8.366;2023-05-24T17:30:43;16.30;1.00
33067;DHT22;19428;49.024;8.366;2023-05-24T17:33:08;16.30;1.00
33067;DHT22;19428;49.024;8.366;2023-05-24T17:35:34;16.40;1.00
33067;DHT22;19428;49.024;8.366;2023-05-24T17:38:00;16.20;1.00
33067;DHT22;19428;49.024;8.366;2023-05-24T17:40:25;16.00;1.00